Time;durP1;ratioP1;P1;durP2;ratioP2;P2;SDS_P1;SDS_P2;PMS_P1;PMS_P2;Temp;Humidity;BMP_temperature;BMP_pressure;BME280_temperature;BME280_humidity;BME280_pressure;Samples;Min_cycle;Max_cycle;Signal;HPM_P1;HPM_P2
2022/01/17 00:02:08;;;;;;;17.40;5.70;;;;;;;5.14;99.77;101679.21;107834;1280;76336;-76
2022/01/17 00:04:35;;;;;;;11.80;6.20;;;;;;;5.16;99.65;101677.27;107830;1279;71322;-77
2022/01/17 00:07:04;;;;;;;10.30;4.70;;;;;;;5.18;99.38;101679.92;107854;1280;73092;-76
2022/01/17 00:09:31;;;;;;;12.40;5.80;;;;;;;5.19;99.55;101678.45;107871;1279;62272;-76
2022/01/17 00:11:58;;;;;;;10.70;5.00;;;;;;;5.19;99.88;101687.73;107868;1277;62615;-76
2022/01/17 00:14:48;;;;;;;13.90;6.40;;;;;;;5.18;100.00;101687.14;107675;1282;76035;-76
2022/01/17 00:19:57;;;;;;;12.80;5.20;;;;;;;5.14;100.00;101691.13;107945;1281;73994;-76
2022/01/17 00:22:26;;;;;;;14.20;5.90;;;;;;;5.12;100.00;101700.54;107556;1281;62251;-76
2022/01/17 00:24:57;;;;;;;6.80;3.70;;;;;;;5.11;100.00;101723.78;107956;1279;60307;-78
2022/01/17 00:27:24;;;;;;;10.50;4.50;;;;;;;5.13;99.98;101730.50;107820;1280;76241;-78
2022/01/17 00:29:50;;;;;;;8.90;4.40;;;;;;;5.13;99.55;101751.48;107901;1280;71496;-78
2022/01/17 00:32:18;;;;;;;8.80;3.10;;;;;;;5.17;99.09;101730.18;107888;1280;73110;-78
2022/01/17 00:34:51;;;;;;;7.40;4.20;;;;;;;5.20;98.53;101740.16;107903;1278;61750;-79
2022/01/17 00:37:18;;;;;;;8.10;3.70;;;;;;;5.21;97.89;101743.04;107898;1281;59870;-78
2022/01/17 00:39:45;;;;;;;6.90;3.20;;;;;;;5.24;97.63;101745.44;107882;1281;76007;-79
2022/01/17 00:42:59;;;;;;;;;;;;;;;;;;;;;
2022/01/17 00:45:30;;;;;;;12.50;3.20;;;;;;;5.25;97.94;101725.21;107996;1280;73955;-80
2022/01/17 00:48:03;;;;;;;12.40;3.20;;;;;;;5.22;97.36;101728.53;107751;1281;60990;-79
2022/01/17 00:50:32;;;;;;;5.60;1.90;;;;;;;5.22;97.15;101725.23;107965;1281;61313;-80
2022/01/17 00:53:41;;;;;;;8.70;3.00;;;;;;;5.22;96.65;101713.67;107535;1281;76369;-80
2022/01/17 00:56:07;;;;;;;9.20;2.40;;;;;;;5.20;96.41;101716.65;107973;1281;71747;-80
2022/01/17 00:58:38;;;;;;;4.30;2.30;;;;;;;5.17;95.83;101712.79;107950;1279;73038;-79
2022/01/17 01:01:07;;;;;;;15.00;2.30;;;;;;;5.18;95.92;101702.77;107735;1273;62316;-79
2022/01/17 01:03:45;;;;;;;;;;;;;;;;;;;;;
2022/01/17 01:06:15;;;;;;;5.90;2.40;;;;;;;5.15;96.72;101720.33;107692;1281;75091;-79
2022/01/17 01:08:45;;;;;;;4.80;1.80;;;;;;;5.15;96.04;101731.05;107714;1281;70499;-80
2022/01/17 01:11:30;;;;;;;6.10;1.80;;;;;;;5.14;95.46;101724.77;107621;1281;73937;-80
2022/01/17 01:14:51;;;;;;;7.60;2.30;;;;;;;5.14;94.92;101720.60;107696;1281;62031;-80
2022/01/17 01:28:46;;;;;;;4.40;1.40;;;;;;;5.42;88.08;101740.57;102545;1300;611762;-80
2022/01/17 01:31:20;;;;;;;7.50;1.80;;;;;;;5.42;84.21;101748.28;104035;1286;221397;-79
2022/01/17 01:33:55;;;;;;;3.40;0.80;;;;;;;5.39;83.02;101738.21;104880;1276;60325;-77
2022/01/17 01:36:38;;;;;;;6.80;1.40;;;;;;;5.32;81.80;101748.16;104841;1278;73483;-79
2022/01/17 01:39:05;;;;;;;14.10;1.60;;;;;;;5.27;81.91;101731.13;105844;1270;71770;-77
2022/01/17 01:41:43;;;;;;;6.00;1.00;;;;;;;5.22;82.44;101727.48;106219;1270;74637;-77
2022/01/17 01:44:27;;;;;;;2.40;0.70;;;;;;;5.17;83.12;101724.42;107712;1270;62698;31
2022/01/17 01:46:57;;;;;;;8.90;1.20;;;;;;;5.13;83.32;101700.44;107423;1273;60660;-78
2022/01/17 01:49:25;;;;;;;8.80;1.10;;;;;;;5.09;83.77;101696.40;107411;1272;74902;-78
2022/01/17 01:51:52;;;;;;;3.80;1.20;;;;;;;5.07;84.19;101708.48;107374;1273;71457;-77
2022/01/17 01:54:35;;;;;;;;;;;;;;;;;;;;;
2022/01/17 01:57:02;;;;;;;4.50;1.20;;;;;;;5.06;85.90;101702.95;107477;1283;62236;-77
2022/01/17 01:59:30;;;;;;;3.70;0.80;;;;;;;5.02;86.95;101711.64;107488;1284;59099;-77
2022/01/17 02:01:56;;;;;;;3.50;0.80;;;;;;;5.01;88.21;101714.91;107481;1283;74305;-76
2022/01/17 02:06:50;;;;;;;4.60;1.10;;;;;;;4.88;91.28;101723.55;107301;1273;58452;-78
2022/01/17 02:09:24;;;;;;;3.70;1.10;;;;;;;4.82;91.84;101729.96;107545;1282;62791;-78
2022/01/17 02:11:54;;;;;;;2.50;0.90;;;;;;;4.76;92.05;101734.55;107548;1282;61794;-79
2022/01/17 02:14:20;;;;;;;3.10;0.80;;;;;;;4.73;92.20;101737.98;107223;1285;73307;-78
2022/01/17 02:16:49;;;;;;;3.20;0.70;;;;;;;4.68;92.23;101742.53;107526;1284;71394;-78
2022/01/17 02:19:26;;;;;;;6.70;1.20;;;;;;;4.67;91.69;101737.48;107564;1282;72550;-80
2022/01/17 02:21:55;;;;;;;3.60;1.00;;;;;;;4.66;90.67;101733.20;107176;1284;59245;-78
2022/01/17 02:24:23;;;;;;;6.60;0.40;;;;;;;4.66;90.21;101713.53;107508;1281;60527;-79
2022/01/17 02:26:52;;;;;;;5.10;1.10;;;;;;;4.67;89.31;101714.34;107307;1284;73370;-78
2022/01/17 02:29:21;;;;;;;3.00;0.70;;;;;;;4.70;88.09;101711.16;107405;1284;71610;-78
2022/01/17 02:31:49;;;;;;;3.30;0.80;;;;;;;4.72;87.63;101706.30;107481;1284;72527;-77
2022/01/17 02:34:24;;;;;;;5.00;1.00;;;;;;;4.73;87.35;101703.75;107502;1283;61878;-78
2022/01/17 02:36:52;;;;;;;5.90;1.10;;;;;;;4.73;85.72;101690.97;107018;1284;60053;-75
2022/01/17 02:39:19;;;;;;;4.20;1.00;;;;;;;4.77;85.09;101666.18;107323;1284;73507;-75
2022/01/17 02:42:06;;;;;;;2.60;0.90;;;;;;;4.79;84.93;101658.52;107530;1284;71316;-77
2022/01/17 02:44:33;;;;;;;1.80;0.40;;;;;;;4.79;84.69;101647.26;107443;1284;74139;-75
2022/01/17 02:47:02;;;;;;;5.10;0.90;;;;;;;4.78;84.66;101648.36;107484;1284;62213;-77
2022/01/17 02:49:31;;;;;;;2.40;0.70;;;;;;;4.80;84.44;101644.38;107469;1284;61691;-77
2022/01/17 02:51:58;;;;;;;6.80;0.90;;;;;;;4.81;84.88;101670.60;107504;1284;73513;-76
2022/01/17 02:54:24;;;;;;;5.50;1.00;;;;;;;4.80;85.25;101674.16;107484;1284;71595;-76
2022/01/17 02:56:51;;;;;;;8.70;1.20;;;;;;;4.79;84.99;101694.94;107455;1284;72983;-75
2022/01/17 02:59:18;;;;;;;5.40;0.70;;;;;;;4.79;85.34;101707.23;107535;1284;62668;-75
2022/01/17 03:01:45;;;;;;;6.50;1.00;;;;;;;4.79;85.77;101705.98;107323;1284;60541;-75
2022/01/17 03:04:11;;;;;;;5.80;1.00;;;;;;;4.80;85.65;101708.38;107277;1285;74126;-75
2022/01/17 03:06:38;;;;;;;5.20;1.60;;;;;;;4.80;85.77;101710.27;107429;1285;71306;-77
2022/01/17 03:09:05;;;;;;;9.40;1.60;;;;;;;4.82;85.65;101705.74;106923;1285;73364;-77
2022/01/17 03:11:32;;;;;;;4.70;0.80;;;;;;;4.83;86.45;101709.00;107395;1285;63056;-80
2022/01/17 03:13:59;;;;;;;3.90;0.80;;;;;;;4.82;86.64;101700.15;107220;1285;61461;-79
2022/01/17 03:16:32;;;;;;;6.40;1.10;;;;;;;4.82;86.63;101685.46;107597;1273;73302;-79
2022/01/17 03:18:59;;;;;;;5.50;0.90;;;;;;;4.80;86.85;101688.05;107593;1282;71496;-79
2022/01/17 03:21:28;;;;;;;2.10;0.90;;;;;;;4.79;86.98;101673.73;107403;1283;74099;-79
2022/01/17 03:23:56;;;;;;;3.80;0.80;;;;;;;4.79;86.98;101666.92;107486;1283;61977;-76
2022/01/17 03:26:23;;;;;;;6.10;0.90;;;;;;;4.77;87.30;101666.68;107473;1283;61619;-76
2022/01/17 03:28:50;;;;;;;4.90;1.20;;;;;;;4.75;87.38;101675.77;107494;1282;74385;-77
2022/01/17 03:31:19;;;;;;;4.20;0.90;;;;;;;4.75;87.19;101675.63;107536;1283;71299;-77
2022/01/17 03:33:46;;;;;;;5.70;1.20;;;;;;;4.75;87.41;101682.63;107375;1284;72772;-77
2022/01/17 03:36:13;;;;;;;5.10;1.10;;;;;;;4.74;87.52;101687.28;107554;1284;60576;-76
2022/01/17 03:38:51;;;;;;;;;;;;;;;;;;;;;
2022/01/17 03:41:17;;;;;;;8.80;1.20;;;;;;;4.74;87.46;101671.15;107549;1282;72900;-77
2022/01/17 03:43:44;;;;;;;5.10;1.00;;;;;;;4.74;87.57;101669.54;107494;1283;71355;-77
2022/01/17 03:46:12;;;;;;;5.30;1.10;;;;;;;4.73;87.46;101654.21;107554;1283;73379;-75
2022/01/17 03:48:40;;;;;;;8.00;1.60;;;;;;;4.72;87.56;101649.88;107481;1283;60745;-75
2022/01/17 03:51:27;;;;;;;4.70;0.90;;;;;;;4.71;87.76;101660.45;107556;1284;60548;-78
2022/01/17 03:53:53;;;;;;;5.50;1.30;;;;;;;4.71;87.49;101673.98;107471;1283;74374;-75
2022/01/17 03:56:20;;;;;;;6.00;1.20;;;;;;;4.73;87.47;101662.48;107493;1284;70113;-77
2022/01/17 03:58:50;;;;;;;5.70;1.00;;;;;;;4.73;86.99;101658.94;107923;1280;72933;-79
2022/01/17 04:01:21;;;;;;;7.80;0.90;;;;;;;4.71;87.24;101660.44;107589;1281;60640;-79
2022/01/17 04:03:48;;;;;;;6.20;0.80;;;;;;;4.71;87.41;101663.60;107788;1281;60626;-79
2022/01/17 04:06:34;;;;;;;7.70;1.40;;;;;;;4.70;86.84;101657.89;107731;1282;73325;-80
2022/01/17 04:09:01;;;;;;;6.50;1.20;;;;;;;4.72;87.04;101663.23;107836;1271;72437;-79
2022/01/17 04:11:28;;;;;;;9.10;1.50;;;;;;;4.69;86.92;101665.67;107667;1281;74063;-79
2022/01/17 04:14:06;;;;;;;5.00;0.70;;;;;;;4.69;87.08;101640.79;107591;1282;62273;-78
2022/01/17 04:16:33;;;;;;;4.10;1.40;;;;;;;4.67;87.04;101650.94;107854;1281;60400;-78
2022/01/17 04:18:59;;;;;;;6.50;1.20;;;;;;;4.68;86.75;101639.50;107537;1283;74494;-78
2022/01/17 04:21:35;;;;;;;6.50;1.00;;;;;;;4.68;86.81;101617.73;107778;1281;71355;-78
2022/01/17 04:24:04;;;;;;;;;;;;;;;4.68;86.80;101609.55;107625;1272;73217;-77
2022/01/17 04:26:31;;;;;;;7.30;1.10;;;;;;;4.67;86.86;101623.10;107812;1270;61628;-76
2022/01/17 04:28:58;;;;;;;8.90;1.00;;;;;;;4.67;86.82;101629.91;107656;1281;59154;-75
2022/01/17 04:31:24;;;;;;;8.40;1.20;;;;;;;4.67;86.69;101649.05;107854;1281;73408;-75
2022/01/17 04:33:54;;;;;;;8.40;1.30;;;;;;;4.68;86.79;101653.36;107900;1280;71068;-77
2022/01/17 04:36:21;;;;;;;5.20;0.90;;;;;;;4.67;86.64;101646.38;107722;1269;74162;-77
2022/01/17 04:38:48;;;;;;;11.60;1.60;;;;;;;4.68;86.03;101663.52;107767;1278;57543;-76
2022/01/17 04:41:18;;;;;;;9.80;0.90;;;;;;;4.71;85.79;101672.52;107865;1281;60615;-76
2022/01/17 04:46:19;;;;;;;5.90;1.00;;;;;;;4.73;85.60;101667.16;107904;1280;70469;-79
2022/01/17 04:48:46;;;;;;;3.90;0.70;;;;;;;4.75;85.22;101669.67;107920;1280;72954;-77
2022/01/17 04:51:15;;;;;;;5.40;1.00;;;;;;;4.77;85.31;101657.41;107835;1281;62440;-76
2022/01/17 04:54:01;;;;;;;7.20;1.80;;;;;;;4.76;85.17;101664.33;107776;1281;61618;-77
2022/01/17 04:56:28;;;;;;;4.60;1.20;;;;;;;4.76;85.20;101657.63;107814;1281;76049;-76
2022/01/17 04:58:55;;;;;;;4.60;0.70;;;;;;;4.76;84.71;101662.95;107724;1281;72468;-79
2022/01/17 05:01:23;;;;;;;11.40;2.00;;;;;;;4.77;84.53;101674.61;107718;1281;72026;-79
2022/01/17 05:03:54;;;;;;;4.60;1.30;;;;;;;4.80;84.09;101688.19;107650;1280;60206;-79
2022/01/17 05:06:21;;;;;;;2.70;0.80;;;;;;;4.81;84.35;101672.39;107833;1281;58989;-80
2022/01/17 05:08:48;;;;;;;5.90;0.70;;;;;;;4.80;84.09;101654.89;107838;1282;74422;-77
2022/01/17 05:11:18;;;;;;;4.90;1.20;;;;;;;4.79;84.48;101659.89;107823;1282;72341;-78
2022/01/17 05:13:48;;;;;;;10.00;1.40;;;;;;;4.79;84.07;101677.40;107572;1282;73978;-82
2022/01/17 05:16:20;;;;;;;5.80;1.00;;;;;;;4.80;84.09;101668.25;107661;1282;60397;-82
2022/01/17 05:22:32;;;;;;;6.90;1.50;;;;;;;4.80;84.13;101686.59;107779;1280;72979;-81
2022/01/17 05:30:16;;;;;;;8.30;1.70;;;;;;;4.80;84.30;101668.40;107773;1274;61403;-80
2022/01/17 05:32:49;;;;;;;1.90;0.80;;;;;;;4.80;84.00;101693.09;107636;1281;60638;-80
2022/01/17 05:35:19;;;;;;;8.00;1.20;;;;;;;4.81;84.28;101668.70;107645;1281;73509;-80
2022/01/17 05:38:47;;;;;;;6.40;0.90;;;;;;;4.79;84.40;101675.45;107756;1282;71338;-80
2022/01/17 05:41:14;;;;;;;11.60;1.10;;;;;;;4.77;84.82;101680.05;107901;1281;73157;-80
2022/01/17 05:43:43;;;;;;;7.30;1.60;;;;;;;4.74;85.12;101684.97;107409;1278;61064;-81
2022/01/17 05:46:12;;;;;;;10.90;1.50;;;;;;;4.72;85.46;101679.70;107567;1282;59972;-81
2022/01/17 05:48:39;;;;;;;2.10;0.80;;;;;;;4.69;85.69;101659.07;107749;1282;73905;-79
2022/01/17 05:51:15;;;;;;;5.60;1.70;;;;;;;4.67;85.88;101675.65;107756;1281;72316;-79
2022/01/17 05:53:42;;;;;;;8.40;1.10;;;;;;;4.67;85.98;101670.23;107740;1282;72908;-79
2022/01/17 05:56:08;;;;;;;10.70;1.60;;;;;;;4.67;86.16;101660.61;107733;1281;61167;-78
2022/01/17 05:58:47;;;;;;;4.90;0.80;;;;;;;4.66;86.24;101661.71;107645;1282;61687;-79
2022/01/17 06:01:34;;;;;;;5.70;1.10;;;;;;;4.67;86.22;101643.61;107781;1281;75336;-80
2022/01/17 06:04:11;;;;;;;;;;;;;;;;;;;;;
2022/01/17 06:06:48;;;;;;;4.50;0.80;;;;;;;4.67;86.18;101656.70;107605;1282;74271;-80
2022/01/17 06:09:28;;;;;;;;;;;;;;;;;;;;;
2022/01/17 06:14:41;;;;;;;8.10;1.40;;;;;;;4.72;85.66;101655.52;107015;1271;72687;-82
2022/01/17 06:17:07;;;;;;;7.70;1.50;;;;;;;4.73;85.78;101671.35;108019;1272;66511;-80
2022/01/17 06:19:34;;;;;;;5.10;0.80;;;;;;;4.77;85.20;101678.63;108182;1278;73191;-77
2022/01/17 06:22:03;;;;;;;6.00;1.00;;;;;;;4.80;85.21;101669.11;107899;1281;59373;-76
2022/01/17 06:24:33;;;;;;;5.00;0.90;;;;;;;4.81;85.06;101712.48;107773;1272;61735;-78
2022/01/17 06:26:59;;;;;;;6.20;1.40;;;;;;;4.84;84.96;101682.64;108128;1279;74065;-78
2022/01/17 06:29:26;;;;;;;12.40;2.00;;;;;;;4.84;85.04;101685.95;108036;1278;70917;-78
2022/01/17 06:32:04;;;;;;;10.70;1.20;;;;;;;4.85;85.18;101685.72;108057;1280;74335;-76
2022/01/17 06:34:53;;;;;;;7.80;1.30;;;;;;;4.82;85.24;101662.77;108009;1279;63168;-78
2022/01/17 06:37:20;;;;;;;10.80;1.60;;;;;;;4.83;85.49;101665.22;108150;1279;60972;-76
2022/01/17 06:39:49;;;;;;;3.60;1.10;;;;;;;4.81;85.57;101673.52;107987;1280;72981;-75
2022/01/17 06:42:16;;;;;;;8.80;1.70;;;;;;;4.80;85.92;101661.36;107828;1280;70262;-74
2022/01/17 06:44:56;;;;;;;6.50;1.40;;;;;;;4.78;86.05;101669.46;107985;1281;72993;-76
2022/01/17 06:47:26;;;;;;;6.20;0.80;;;;;;;4.77;86.31;101660.04;108008;1279;61417;-75
2022/01/17 06:49:52;;;;;;;4.50;1.10;;;;;;;4.76;86.49;101660.48;107917;1280;60671;-75
2022/01/17 06:52:19;;;;;;;7.80;1.80;;;;;;;4.75;86.65;101675.59;108007;1279;74161;-75
2022/01/17 06:54:47;;;;;;;10.70;1.80;;;;;;;4.75;86.97;101681.04;107977;1280;72348;-75
2022/01/17 06:57:14;;;;;;;5.30;1.40;;;;;;;4.75;87.30;101685.46;108028;1279;58482;-76
2022/01/17 06:59:40;;;;;;;9.80;1.00;;;;;;;4.73;87.67;101699.45;107967;1279;63860;-75
2022/01/17 07:02:32;;;;;;;4.40;1.20;;;;;;;4.73;88.02;101717.65;107853;1280;60560;-74
2022/01/17 07:05:31;;;;;;;6.00;1.00;;;;;;;4.72;88.20;101730.67;107601;1280;74271;-79
2022/01/17 07:08:07;;;;;;;5.70;1.00;;;;;;;4.73;88.22;101747.45;107828;1280;71538;-78
2022/01/17 07:10:50;;;;;;;5.90;0.90;;;;;;;4.71;88.51;101772.41;107864;1280;72990;-78
2022/01/17 07:13:24;;;;;;;6.80;1.20;;;;;;;4.72;88.34;101766.25;107952;1279;61693;-78
2022/01/17 07:16:02;;;;;;;6.10;1.00;;;;;;;4.73;88.36;101741.64;107783;1281;59294;-76
2022/01/17 07:18:29;;;;;;;6.00;1.50;;;;;;;4.74;88.29;101749.84;107850;1281;74154;-78
2022/01/17 07:20:56;;;;;;;4.70;1.40;;;;;;;4.74;88.09;101725.23;107965;1280;71471;-78
2022/01/17 07:23:23;;;;;;;6.40;1.00;;;;;;;4.75;88.16;101684.40;107944;1281;73063;-79
2022/01/17 07:25:53;;;;;;;9.90;1.00;;;;;;;4.74;88.21;101676.92;107917;1280;62206;-80
2022/01/17 07:28:19;;;;;;;9.50;1.60;;;;;;;4.73;88.27;101677.34;108039;1279;60593;-78
2022/01/17 07:30:46;;;;;;;8.50;1.60;;;;;;;4.73;88.57;101678.76;108035;1280;74150;-78
2022/01/17 07:33:13;;;;;;;5.40;1.30;;;;;;;4.71;88.88;101678.70;107978;1280;72422;-77
2022/01/17 07:35:40;;;;;;;5.90;1.10;;;;;;;4.71;88.97;101681.35;107967;1279;74465;-77
2022/01/17 07:38:08;;;;;;;6.60;1.90;;;;;;;4.69;89.42;101665.02;107948;1279;60076;-77
2022/01/17 07:40:35;;;;;;;5.50;0.90;;;;;;;4.68;89.65;101686.83;107986;1279;61329;-77
2022/01/17 07:43:01;;;;;;;4.40;1.20;;;;;;;4.68;89.71;101661.39;107991;1280;75878;-78
2022/01/17 07:45:30;;;;;;;8.10;1.10;;;;;;;4.68;89.92;101682.27;107741;1281;70515;-78
2022/01/17 07:50:39;;;;;;;7.50;1.40;;;;;;;4.64;91.57;101658.73;108165;1280;63204;-80
2022/01/17 07:53:13;;;;;;;9.80;1.50;;;;;;;4.59;92.09;101675.17;108128;1280;60788;-80
2022/01/17 07:55:40;;;;;;;4.00;0.80;;;;;;;4.56;92.23;101677.35;107927;1280;73912;-80
2022/01/17 07:58:07;;;;;;;7.10;1.60;;;;;;;4.55;92.28;101682.86;108097;1280;71385;-80
2022/01/17 08:00:34;;;;;;;2.10;0.80;;;;;;;4.55;92.37;101669.16;107982;1281;73023;-79
2022/01/17 08:03:08;;;;;;;8.50;2.80;;;;;;;4.57;92.25;101665.88;107430;1283;61540;-78
2022/01/17 08:05:40;;;;;;;7.50;1.20;;;;;;;4.59;92.37;101672.58;107862;1280;60697;-81
2022/01/17 08:08:12;;;;;;;6.50;1.20;;;;;;;4.60;92.49;101674.94;108159;1279;75374;-80
2022/01/17 08:10:47;;;;;;;11.30;2.20;;;;;;;4.61;92.72;101677.02;108106;1280;71370;-81
2022/01/17 08:13:18;;;;;;;5.70;1.10;;;;;;;4.61;92.58;101692.25;107835;1280;72653;-79
2022/01/17 08:15:51;;;;;;;4.10;0.70;;;;;;;4.61;92.56;101693.46;107881;1281;62610;-81
2022/01/17 08:18:26;;;;;;;9.70;1.70;;;;;;;4.64;92.63;101707.58;108132;1280;60549;-80
2022/01/17 08:20:54;;;;;;;5.00;0.80;;;;;;;4.66;92.62;101678.39;108029;1279;74150;-78
2022/01/17 08:23:23;;;;;;;8.90;1.40;;;;;;;4.67;92.81;101667.64;107815;1280;70090;-81
2022/01/17 08:25:51;;;;;;;8.30;1.00;;;;;;;4.64;93.40;101656.40;107592;1280;73839;-79
2022/01/17 08:28:21;;;;;;;3.50;0.90;;;;;;;4.64;93.94;101665.17;108078;1279;61489;-78
2022/01/17 08:30:48;;;;;;;5.00;0.90;;;;;;;4.61;94.73;101667.02;107764;1270;60744;-76
2022/01/17 08:34:18;;;;;;;;;;;;;;;;;;;;;
2022/01/17 08:37:30;;;;;;;5.50;0.90;;;;;;;4.48;96.49;101657.91;107812;1281;71810;-77
2022/01/17 08:40:00;;;;;;;7.30;1.50;;;;;;;4.44;97.07;101675.20;107690;1281;71611;-78
2022/01/17 08:42:27;;;;;;;6.20;1.10;;;;;;;4.42;98.00;101682.36;107864;1280;60782;-77
2022/01/17 08:44:56;;;;;;;6.50;1.40;;;;;;;4.41;98.50;101680.54;107602;1281;61680;-78
2022/01/17 08:47:23;;;;;;;5.60;1.20;;;;;;;4.40;98.89;101675.36;107888;1281;74140;-77
2022/01/17 08:49:57;;;;;;;5.20;1.30;;;;;;;4.39;99.18;101685.60;107758;1281;72392;-78
2022/01/17 08:52:30;;;;;;;3.50;1.50;;;;;;;4.39;99.29;101704.67;107900;1281;71945;-78
2022/01/17 08:54:57;;;;;;;5.20;1.50;;;;;;;4.41;99.48;101698.18;107809;1281;62616;-77
2022/01/17 08:57:33;;;;;;;3.10;1.10;;;;;;;4.43;99.71;101693.01;107914;1281;61622;-80
2022/01/17 09:00:00;;;;;;;7.60;2.30;;;;;;;4.45;99.62;101708.59;108164;1281;73709;-78
2022/01/17 09:02:27;;;;;;;7.80;1.90;;;;;;;4.47;99.83;101725.48;107139;1269;69911;-76
2022/01/17 09:04:58;;;;;;;5.20;1.00;;;;;;;4.46;99.85;101713.77;108082;1268;76253;31
2022/01/17 09:10:24;;;;;;;10.30;2.30;;;;;;;4.50;100.00;101721.73;107595;1272;61182;-78
2022/01/17 09:13:00;;;;;;;4.10;1.10;;;;;;;4.50;100.00;101729.45;107539;1274;76597;31
2022/01/17 09:15:30;;;;;;;3.70;1.50;;;;;;;4.54;100.00;101720.05;107572;1274;71430;-78
2022/01/17 09:17:57;;;;;;;6.90;1.60;;;;;;;4.56;100.00;101712.92;107390;1285;73597;-79
2022/01/17 09:21:20;;;;;;;;;;;;;;;;;;;;;
2022/01/17 09:24:03;;;;;;;5.60;1.30;;;;;;;4.54;100.00;101686.25;107419;1284;59448;-82
2022/01/17 09:27:37;;;;;;;4.90;1.30;;;;;;;4.52;100.00;101691.12;107251;1275;150097;-80
2022/01/17 09:30:18;;;;;;;;;;;;;;;;;;;;;
2022/01/17 09:33:17;;;;;;;3.70;1.10;;;;;;;4.65;100.00;101706.13;107566;1284;72992;-79
2022/01/17 09:36:33;;;;;;;6.70;1.80;;;;;;;4.71;100.00;101731.08;107475;1284;62909;-82
2022/01/17 09:39:07;;;;;;;3.50;1.00;;;;;;;4.78;100.00;101723.57;107261;1284;61656;-81
2022/01/17 09:42:11;;;;;;;6.20;1.60;;;;;;;4.83;100.00;101723.55;107435;1284;73128;-79
2022/01/17 09:45:05;;;;;;;5.60;1.50;;;;;;;4.90;100.00;101746.69;107439;1284;72457;-83
2022/01/17 09:48:45;;;;;;;4.60;1.40;;;;;;;4.94;100.00;101739.61;107679;1284;71699;-83
2022/01/17 09:54:36;;;;;;;4.80;1.20;;;;;;;5.01;100.00;101766.96;107396;1284;60347;-81
2022/01/17 09:57:47;;;;;;;4.20;1.80;;;;;;;5.04;100.00;101745.34;107688;1284;74305;-81
2022/01/17 10:00:38;;;;;;;5.10;1.40;;;;;;;5.06;100.00;101736.25;107591;1284;72742;-80
2022/01/17 10:04:07;;;;;;;;;;;;;;;;;;;;;
2022/01/17 10:07:14;;;;;;;;;;;;;;;;;;;;;
2022/01/17 10:10:45;;;;;;;5.40;1.60;;;;;;;5.15;100.00;101744.36;107389;1282;60780;-82
2022/01/17 10:14:04;;;;;;;3.40;1.40;;;;;;;5.22;100.00;101733.86;107486;1284;73334;-84
2022/01/17 10:17:31;;;;;;;5.40;1.00;;;;;;;5.25;100.00;101767.11;107328;1285;71492;-82
2022/01/17 10:20:21;;;;;;;11.70;1.60;;;;;;;5.26;100.00;101757.21;107518;1285;72948;-81
2022/01/17 10:23:28;;;;;;;;;;;;;;;;;;;;;
2022/01/17 10:26:07;;;;;;;6.50;1.80;;;;;;;5.29;100.00;101750.67;107349;1285;60981;-82
2022/01/17 10:29:12;;;;;;;5.00;1.50;;;;;;;5.33;100.00;101764.25;107616;1283;74931;-81
2022/01/17 10:37:20;;;;;;;9.50;1.90;;;;;;;5.50;100.00;101745.78;107360;1285;62454;-80
2022/01/17 10:40:00;;;;;;;6.60;1.50;;;;;;;5.58;100.00;101750.10;107494;1283;61466;-80
2022/01/17 10:42:42;;;;;;;5.40;1.50;;;;;;;5.64;100.00;101765.41;107322;1284;74233;-80
2022/01/17 10:45:17;;;;;;;6.70;2.10;;;;;;;5.74;100.00;101761.85;107522;1284;71504;-79
2022/01/17 10:48:36;;;;;;;;;;;;;;;;;;;;;
2022/01/17 10:51:38;;;;;;;7.70;2.20;;;;;;;5.80;100.00;101759.86;107512;1284;61369;-84
2022/01/17 10:54:15;;;;;;;3.80;1.60;;;;;;;5.83;100.00;101767.84;107622;1272;61609;31
2022/01/17 10:56:56;;;;;;;3.10;1.50;;;;;;;5.88;100.00;101803.27;107364;1285;74295;-80
2022/01/17 10:59:29;;;;;;;6.30;2.00;;;;;;;5.95;100.00;101785.94;107202;1286;71354;-78
2022/01/17 11:02:20;;;;;;;8.00;2.10;;;;;;;6.02;100.00;101777.65;107302;1286;73824;-78
2022/01/17 11:04:49;;;;;;;11.50;2.20;;;;;;;6.18;99.95;101772.20;107402;1285;63562;-78
2022/01/17 11:08:02;;;;;;;10.20;2.40;;;;;;;6.31;99.53;101779.30;107459;1285;60595;-78
2022/01/17 11:11:07;;;;;;;7.00;1.80;;;;;;;6.38;98.97;101778.36;107389;1285;75649;-80
2022/01/17 11:13:38;;;;;;;10.80;1.70;;;;;;;6.42;98.60;101787.03;107269;1286;71108;-79
2022/01/17 11:16:32;;;;;;;4.80;1.70;;;;;;;6.45;98.50;101811.20;107366;1287;72992;-80
2022/01/17 11:20:03;;;;;;;7.60;2.00;;;;;;;6.50;98.40;101787.38;107236;1287;61914;-79
2022/01/17 11:22:19;;;;;;;9.10;1.50;;;;;;;6.58;98.88;101787.53;107197;1287;60903;-82
2022/01/17 11:25:39;;;;;;;;;;;;;;;;;;;;;
2022/01/17 11:28:32;;;;;;;6.90;1.80;;;;;;;6.47;99.85;101775.20;107397;1285;71203;-82
2022/01/17 11:31:28;;;;;;;4.90;1.40;;;;;;;6.38;100.00;101795.39;107309;1285;73099;-79
2022/01/17 11:34:41;;;;;;;9.20;1.50;;;;;;;6.30;100.00;101804.27;107325;1285;63537;-81
2022/01/17 11:37:23;;;;;;;;;;;;;;;;;;;;;
2022/01/17 11:39:54;;;;;;;4.60;1.20;;;;;;;6.21;100.00;101801.81;107371;1287;75333;-81
2022/01/17 11:42:48;;;;;;;5.60;1.60;;;;;;;6.18;100.00;101787.30;107317;1287;72248;-80
2022/01/17 11:46:03;;;;;;;8.00;2.30;;;;;;;6.12;100.00;101792.11;107354;1285;73725;-79
2022/01/17 11:48:50;;;;;;;;;;;;;;;;;;;;;
2022/01/17 11:52:18;;;;;;;6.60;1.60;;;;;;;6.02;100.00;101813.14;107180;1286;60630;-78
2022/01/17 11:55:35;;;;;;;;;;;;;;;;;;;;;
2022/01/17 11:59:03;;;;;;;9.30;1.90;;;;;;;5.93;100.00;101806.04;107026;1285;71585;-77
2022/01/17 12:02:22;;;;;;;;;;;;;;;;;;;;;
2022/01/17 12:06:05;;;;;;;12.90;3.00;;;;;;;5.93;100.00;101825.34;106930;1287;62570;-78
2022/01/17 12:09:34;;;;;;;12.20;2.20;;;;;;;5.96;100.00;101818.50;107365;1285;59967;-80
2022/01/17 12:12:58;;;;;;;;;;;;;;;;;;;;;
2022/01/17 12:15:25;;;;;;;18.00;4.70;;;;;;;6.04;100.00;101820.70;107285;1285;72484;-77
2022/01/17 12:18:58;;;;;;;;;;;;;;;;;;;;;
2022/01/17 12:22:15;;;;;;;;;;;;;;;;;;;;;
2022/01/17 12:25:42;;;;;;;15.70;3.50;;;;;;;6.00;100.00;101842.80;106269;1293;61229;-78
2022/01/17 12:28:16;;;;;;;;;;;;;;;5.99;100.00;101851.86;106405;1293;75283;-81
2022/01/17 12:31:18;;;;;;;14.60;2.50;;;;;;;5.99;100.00;101869.36;107498;1285;72720;-80
2022/01/17 12:33:48;;;;;;;9.00;1.70;;;;;;;5.99;100.00;101878.84;107152;1287;74016;-78
2022/01/17 12:37:11;;;;;;;4.60;1.60;;;;;;;5.98;100.00;101881.08;107254;1287;62305;-80
2022/01/17 12:40:56;;;;;;;7.40;2.80;;;;;;;6.01;100.00;101864.66;107118;1287;60610;-81
2022/01/17 12:44:14;;;;;;;7.40;1.70;;;;;;;6.07;100.00;101873.52;107433;1285;74234;-80
2022/01/17 12:47:40;;;;;;;;;;;;;;;;;;;;;
2022/01/17 12:50:38;;;;;;;;;;;;;;;;;;;;;
2022/01/17 12:53:54;;;;;;;7.90;1.90;;;;;;;6.20;100.00;101859.67;106840;1290;62262;-80
2022/01/17 12:56:48;;;;;;;;;;;;;;;;;;;;;
2022/01/17 12:59:43;;;;;;;11.40;2.00;;;;;;;6.25;100.00;101858.23;106911;1290;75657;-82
2022/01/17 13:02:32;;;;;;;;;;;;;;;;;;;;;
2022/01/17 13:05:23;;;;;;;;;;;;;;;;;;;;;
2022/01/17 13:08:53;;;;;;;14.10;3.00;;;;;;;6.42;100.00;101866.58;106960;1289;61018;-81
2022/01/17 13:11:56;;;;;;;;;;;;;;;;;;;;;
2022/01/17 13:15:07;;;;;;;9.50;1.90;;;;;;;7.22;100.00;101868.58;106720;1290;74238;-82
2022/01/17 13:18:40;;;;;;;11.50;2.10;;;;;;;7.57;97.76;101857.98;106769;1290;71986;-83
2022/01/17 13:22:13;;;;;;;12.70;1.60;;;;;;;7.51;95.86;101873.23;106636;1290;73004;-81
2022/01/17 13:25:35;;;;;;;;;;;;;;;;;;;;;
2022/01/17 13:29:07;;;;;;;15.70;3.70;;;;;;;7.39;92.83;101880.89;106942;1287;60640;-83
2022/01/17 13:32:15;;;;;;;7.70;1.50;;;;;;;7.15;93.81;101880.41;102865;1286;5605466;-82
2022/01/17 13:35:43;;;;;;;;;;;;;;;;;;;;;
2022/01/17 13:42:44;;;;;;;;;;;;;;;;;;;;;
2022/01/17 13:46:28;;;;;;;7.90;1.70;;;;;;;9.16;86.63;101900.60;107635;1281;61641;-81
2022/01/17 13:49:38;;;;;;;13.20;2.00;;;;;;;10.01;83.97;101899.19;106635;1292;74972;-82
2022/01/17 13:53:11;;;;;;;7.10;1.40;;;;;;;10.76;76.22;101902.91;106734;1292;72791;-87
2022/01/17 13:56:38;;;;;;;4.10;1.20;;;;;;;11.43;69.12;101909.65;107403;1272;74095;-85
2022/01/17 13:59:35;;;;;;;5.90;1.10;;;;;;;11.77;61.96;101938.52;107597;1271;159665;-83
2022/01/17 14:02:21;;;;;;;5.40;1.40;;;;;;;12.19;60.23;101923.63;107444;1282;60727;-80